Pickleville, Utah
Current Conditions -  °F | °C
As of 11:51 AM on Tuesday 21 Oct 2014 (Local Time) from KLGU Reporting Station
Broken Clouds Broken Clouds  
Wind Chill: 12°   Ceiling: 7500
Heat Index: 12°   Visibility: 10mi
Dew Point:   Wind: 21mph
Humidity: 62%   Direction: 10°N
Pressure: 30.01"   Gusts: 30mph
Location:  41.9408°N, 111.433°W
Report Text: KLGU 211751Z AUTO 01018G26KT 10SM BKN075 BKN120 12/05 A3001 RMK AO2 PK WND 01028/1733 SLP145 60001 T01220050 10172 20078 53042 TSNO
Loading
Personal Weather Stations






























Interactive Weather Map
Tropical Storm Tracking
New forecast layout! Learn more

10-Day Weather Forecast

Advertisements
Track Severe Weather on mobile